Time;durP1;ratioP1;P1;durP2;ratioP2;P2;SDS_P1;SDS_P2;PMS_P1;PMS_P2;Temp;Humidity;BMP_temperature;BMP_pressure;BME280_temperature;BME280_humidity;BME280_pressure;Samples;Min_cycle;Max_cycle;Signal;HPM_P1;HPM_P2
2021/10/23 00:01:35;;;;;;;0.10;0.10;;;;;;;;;;4976076;28;20107;-81
2021/10/23 00:04:01;;;;;;;0.03;0.03;;;;;;;;;;4975014;28;20046;-81
2021/10/23 00:06:26;;;;;;;0.03;0.03;;;;;;;;;;4975803;28;20352;-81
2021/10/23 00:08:51;;;;;;;0.10;0.10;;;;;;;;;;4975723;28;20055;-81
2021/10/23 00:11:17;;;;;;;0.00;0.00;;;;;;;;;;4975887;28;20440;-81
2021/10/23 00:13:42;;;;;;;0.95;0.95;;;;;;;;;;4975763;28;20037;-81
2021/10/23 00:16:07;;;;;;;0.20;0.20;;;;;;;;;;4975815;28;20038;-80
2021/10/23 00:18:33;;;;;;;0.08;0.08;;;;;;;;;;4975759;28;20121;-81
2021/10/23 00:20:58;;;;;;;0.00;0.00;;;;;;;;;;4975702;28;20027;-81
2021/10/23 00:23:23;;;;;;;0.22;0.22;;;;;;;;;;4975684;28;20069;-80
2021/10/23 00:25:48;;;;;;;0.00;0.00;;;;;;;;;;4975580;28;20031;-81
2021/10/23 00:28:14;;;;;;;0.10;0.10;;;;;;;;;;4975350;28;20045;-80
2021/10/23 00:30:39;;;;;;;0.20;0.20;;;;;;;;;;4975120;28;20023;-81
2021/10/23 00:33:04;;;;;;;0.00;0.00;;;;;;;;;;4975090;28;20041;-80
2021/10/23 00:35:30;;;;;;;0.00;0.00;;;;;;;;;;4975156;28;20038;-80
2021/10/23 00:37:55;;;;;;;0.00;0.00;;;;;;;;;;4975707;28;20115;-80
2021/10/23 00:40:21;;;;;;;0.00;0.00;;;;;;;;;;4975353;28;20085;-81
2021/10/23 00:42:46;;;;;;;0.00;0.00;;;;;;;;;;4975363;28;20035;-80
2021/10/23 00:45:11;;;;;;;0.03;0.03;;;;;;;;;;4973894;28;20034;-80
2021/10/23 00:47:36;;;;;;;0.00;0.00;;;;;;;;;;4974858;28;20062;-80
2021/10/23 00:50:03;;;;;;;0.10;0.10;;;;;;;;;;4975134;28;20022;-81
2021/10/23 00:52:28;;;;;;;0.57;0.25;;;;;;;;;;4975447;28;20053;-81
2021/10/23 00:54:54;;;;;;;0.00;0.00;;;;;;;;;;4975094;28;20480;-80
2021/10/23 00:57:19;;;;;;;0.10;0.10;;;;;;;;;;4974799;28;20070;-80
2021/10/23 00:59:44;;;;;;;0.00;0.00;;;;;;;;;;4974692;28;20037;-80
2021/10/23 01:02:09;;;;;;;0.68;0.68;;;;;;;;;;4974902;28;20042;-80
2021/10/23 01:04:35;;;;;;;0.30;0.30;;;;;;;;;;4975017;28;20077;-81
2021/10/23 01:07:01;;;;;;;0.10;0.10;;;;;;;;;;4973560;28;20109;-80
2021/10/23 01:09:26;;;;;;;1.55;1.10;;;;;;;;;;4974473;28;20133;-80
2021/10/23 01:11:52;;;;;;;0.30;0.30;;;;;;;;;;4974916;28;20019;-81
2021/10/23 01:14:20;;;;;;;2.17;0.68;;;;;;;;;;4974746;28;20041;-81
2021/10/23 01:16:46;;;;;;;0.60;0.60;;;;;;;;;;4974126;28;20811;-80
2021/10/23 01:19:11;;;;;;;1.75;1.50;;;;;;;;;;4974773;28;20058;-80
2021/10/23 01:21:37;;;;;;;3.85;1.38;;;;;;;;;;4974656;28;20065;-81
2021/10/23 01:24:04;;;;;;;0.22;0.22;;;;;;;;;;4973517;28;20394;-80
2021/10/23 01:26:29;;;;;;;0.00;0.00;;;;;;;;;;4974691;28;20113;-81
2021/10/23 01:28:55;;;;;;;0.20;0.20;;;;;;;;;;4974393;28;20031;-81
2021/10/23 01:31:20;;;;;;;0.00;0.00;;;;;;;;;;4974375;28;20042;-81
2021/10/23 01:33:45;;;;;;;0.10;0.10;;;;;;;;;;4974617;28;20030;-81
2021/10/23 01:36:13;;;;;;;0.28;0.20;;;;;;;;;;4974441;28;20079;-81
2021/10/23 01:38:38;;;;;;;0.85;0.30;;;;;;;;;;4974571;28;20038;-81
2021/10/23 01:41:05;;;;;;;0.52;0.52;;;;;;;;;;4974666;28;20457;-81
2021/10/23 01:43:31;;;;;;;0.15;0.15;;;;;;;;;;4974559;28;20026;-81
2021/10/23 01:45:56;;;;;;;0.10;0.10;;;;;;;;;;4974500;28;20042;-80
2021/10/23 01:48:21;;;;;;;0.05;0.05;;;;;;;;;;4973218;28;20105;-81
2021/10/23 01:50:47;;;;;;;0.10;0.10;;;;;;;;;;4974431;28;20431;-81
2021/10/23 01:53:12;;;;;;;0.30;0.30;;;;;;;;;;4974730;28;20035;-81
2021/10/23 01:55:37;;;;;;;0.00;0.00;;;;;;;;;;4974321;28;20030;-80
2021/10/23 01:58:03;;;;;;;0.20;0.20;;;;;;;;;;4974380;28;20031;-80
2021/10/23 02:00:28;;;;;;;0.10;0.10;;;;;;;;;;4974200;28;20383;-80
2021/10/23 02:02:53;;;;;;;0.00;0.00;;;;;;;;;;4974393;28;20474;-80
2021/10/23 02:05:19;;;;;;;0.00;0.00;;;;;;;;;;4974467;28;20086;-81
2021/10/23 02:07:44;;;;;;;0.70;0.70;;;;;;;;;;4974231;28;20471;-80
2021/10/23 02:10:09;;;;;;;0.10;0.10;;;;;;;;;;4973735;28;20077;-80
2021/10/23 02:12:35;;;;;;;0.30;0.30;;;;;;;;;;4974232;28;20034;-80
2021/10/23 02:15:00;;;;;;;0.00;0.00;;;;;;;;;;4973866;28;20104;-80
2021/10/23 02:17:26;;;;;;;0.00;0.00;;;;;;;;;;4974180;28;20027;-81
2021/10/23 02:19:51;;;;;;;0.00;0.00;;;;;;;;;;4973980;28;20038;-80
2021/10/23 02:22:16;;;;;;;0.10;0.10;;;;;;;;;;4974177;28;20031;-80
2021/10/23 02:24:41;;;;;;;0.10;0.10;;;;;;;;;;4974351;28;20644;-80
2021/10/23 02:27:07;;;;;;;0.52;0.50;;;;;;;;;;4974819;28;20027;-80
2021/10/23 02:29:32;;;;;;;0.00;0.00;;;;;;;;;;4977649;28;20490;-81
2021/10/23 02:31:57;;;;;;;0.20;0.20;;;;;;;;;;4977754;28;20031;-80
2021/10/23 02:34:23;;;;;;;0.00;0.00;;;;;;;;;;4977313;28;20038;-81
2021/10/23 02:36:48;;;;;;;1.13;1.00;;;;;;;;;;4977628;28;20038;-80
2021/10/23 02:39:13;;;;;;;16.00;0.85;;;;;;;;;;4977587;28;20038;-80
2021/10/23 02:41:38;;;;;;;0.20;0.20;;;;;;;;;;4977163;28;20035;-81
2021/10/23 02:44:04;;;;;;;0.10;0.10;;;;;;;;;;4977522;28;20031;-81
2021/10/23 02:46:29;;;;;;;0.93;0.93;;;;;;;;;;4977228;28;20110;-81
2021/10/23 02:48:55;;;;;;;0.32;0.32;;;;;;;;;;4977194;28;20035;-80
2021/10/23 02:51:20;;;;;;;0.00;0.00;;;;;;;;;;4977377;28;20073;-81
2021/10/23 02:53:45;;;;;;;0.00;0.00;;;;;;;;;;4977605;28;20367;-81
2021/10/23 02:56:10;;;;;;;0.77;0.45;;;;;;;;;;4977295;28;20487;-80
2021/10/23 02:58:36;;;;;;;1.55;1.45;;;;;;;;;;4977108;28;20039;-81
2021/10/23 03:01:01;;;;;;;0.10;0.10;;;;;;;;;;4976981;28;20070;-81
2021/10/23 03:03:27;;;;;;;0.25;0.25;;;;;;;;;;4977109;28;20031;-81
2021/10/23 03:05:52;;;;;;;0.40;0.40;;;;;;;;;;4977095;28;20038;-81
2021/10/23 03:08:17;;;;;;;0.00;0.00;;;;;;;;;;4977140;28;20033;-80
2021/10/23 03:10:43;;;;;;;0.38;0.38;;;;;;;;;;4976998;28;20047;-81
2021/10/23 03:13:08;;;;;;;0.20;0.20;;;;;;;;;;4977063;28;20065;-81
2021/10/23 03:15:33;;;;;;;0.10;0.10;;;;;;;;;;4976819;28;20410;-81
2021/10/23 03:17:59;;;;;;;0.45;0.45;;;;;;;;;;4977204;28;20030;-80
2021/10/23 03:20:24;;;;;;;0.47;0.47;;;;;;;;;;4976759;28;20041;-81
2021/10/23 03:22:49;;;;;;;0.10;0.10;;;;;;;;;;4976834;28;20046;-80
2021/10/23 03:25:15;;;;;;;0.00;0.00;;;;;;;;;;4976437;28;20038;-81
2021/10/23 03:27:40;;;;;;;0.05;0.05;;;;;;;;;;4975259;28;20117;-80
2021/10/23 03:30:06;;;;;;;0.00;0.00;;;;;;;;;;4976705;28;20034;-80
2021/10/23 03:32:31;;;;;;;0.00;0.00;;;;;;;;;;4976539;28;20081;-81
2021/10/23 03:34:59;;;;;;;0.00;0.00;;;;;;;;;;4976611;28;20430;-80
2021/10/23 03:37:26;;;;;;;0.00;0.00;;;;;;;;;;4976405;28;20031;-81
2021/10/23 03:39:51;;;;;;;0.00;0.00;;;;;;;;;;4975984;28;20475;-80
2021/10/23 03:42:17;;;;;;;0.10;0.10;;;;;;;;;;4976231;28;20038;-81
2021/10/23 03:44:42;;;;;;;0.20;0.20;;;;;;;;;;4976676;28;20022;-79
2021/10/23 03:47:07;;;;;;;0.15;0.15;;;;;;;;;;4976279;28;20023;-80
2021/10/23 03:49:32;;;;;;;0.00;0.00;;;;;;;;;;4976477;28;20431;-81
2021/10/23 03:51:58;;;;;;;0.10;0.10;;;;;;;;;;4976286;28;20033;-80
2021/10/23 03:54:24;;;;;;;0.55;0.47;;;;;;;;;;4976643;28;20062;-81
2021/10/23 03:56:49;;;;;;;0.05;0.05;;;;;;;;;;4976192;28;20038;-80
2021/10/23 03:59:15;;;;;;;0.00;0.00;;;;;;;;;;4976353;28;20078;-81
2021/10/23 04:01:40;;;;;;;0.00;0.00;;;;;;;;;;4976079;28;20383;-80
2021/10/23 04:04:05;;;;;;;0.00;0.00;;;;;;;;;;4975717;28;20089;-81
2021/10/23 04:06:30;;;;;;;0.10;0.10;;;;;;;;;;4974561;28;20026;-81
2021/10/23 04:08:56;;;;;;;0.38;0.38;;;;;;;;;;4976036;28;20058;-81
2021/10/23 04:11:21;;;;;;;0.00;0.00;;;;;;;;;;4976048;28;20112;-80
2021/10/23 04:13:46;;;;;;;0.50;0.50;;;;;;;;;;4975466;28;20027;-81
2021/10/23 04:16:12;;;;;;;0.10;0.10;;;;;;;;;;4976183;28;20047;-81
2021/10/23 04:18:37;;;;;;;0.00;0.00;;;;;;;;;;4975750;28;20042;-81
2021/10/23 04:21:02;;;;;;;0.00;0.00;;;;;;;;;;4975750;28;20089;-80
2021/10/23 04:23:27;;;;;;;3.63;1.38;;;;;;;;;;4975347;28;20030;-81
2021/10/23 04:25:53;;;;;;;0.00;0.00;;;;;;;;;;4975733;28;20035;-81
2021/10/23 04:28:18;;;;;;;0.00;0.00;;;;;;;;;;4975435;28;20050;-81
2021/10/23 04:30:43;;;;;;;0.10;0.10;;;;;;;;;;4975523;28;20057;-80
2021/10/23 04:33:09;;;;;;;0.00;0.00;;;;;;;;;;4975412;28;20034;-80
2021/10/23 04:35:34;;;;;;;0.00;0.00;;;;;;;;;;4975013;28;20023;-80
2021/10/23 04:37:59;;;;;;;0.00;0.00;;;;;;;;;;4974089;28;20034;-80
2021/10/23 04:40:25;;;;;;;0.00;0.00;;;;;;;;;;4975269;28;20498;-81
2021/10/23 04:42:50;;;;;;;0.00;0.00;;;;;;;;;;4975738;28;20023;-81
2021/10/23 04:45:15;;;;;;;0.00;0.00;;;;;;;;;;4975422;28;20455;-80
2021/10/23 04:47:41;;;;;;;2.35;0.75;;;;;;;;;;4975181;28;20467;-81
2021/10/23 04:50:06;;;;;;;0.00;0.00;;;;;;;;;;4975011;28;20085;-81
2021/10/23 04:52:31;;;;;;;1.20;1.10;;;;;;;;;;4974840;28;20395;-81
2021/10/23 04:54:56;;;;;;;0.00;0.00;;;;;;;;;;4975144;28;20035;-81
2021/10/23 04:57:22;;;;;;;0.10;0.10;;;;;;;;;;4975055;28;20108;-80
2021/10/23 04:59:47;;;;;;;0.00;0.00;;;;;;;;;;4974690;28;20081;-81
2021/10/23 05:02:12;;;;;;;0.10;0.10;;;;;;;;;;4975171;28;20041;-80
2021/10/23 05:04:37;;;;;;;0.10;0.10;;;;;;;;;;4974722;28;20019;-80
2021/10/23 05:07:03;;;;;;;0.98;0.65;;;;;;;;;;4974799;28;20065;-81
2021/10/23 05:09:28;;;;;;;0.00;0.00;;;;;;;;;;4974723;28;20051;-81
2021/10/23 05:11:53;;;;;;;0.00;0.00;;;;;;;;;;4974859;28;20029;-81
2021/10/23 05:14:19;;;;;;;0.20;0.20;;;;;;;;;;4975271;28;20550;-80
2021/10/23 05:16:44;;;;;;;1.35;0.65;;;;;;;;;;4974528;28;20046;-81
2021/10/23 05:19:10;;;;;;;0.00;0.00;;;;;;;;;;4974886;28;20444;-81
2021/10/23 05:21:35;;;;;;;0.00;0.00;;;;;;;;;;4974714;28;20034;-81
2021/10/23 05:24:00;;;;;;;0.00;0.00;;;;;;;;;;4974789;28;20459;-81
2021/10/23 05:26:26;;;;;;;0.00;0.00;;;;;;;;;;4974679;28;20019;-81
2021/10/23 05:28:51;;;;;;;3.83;1.55;;;;;;;;;;4974441;28;20030;-81
2021/10/23 05:31:16;;;;;;;0.20;0.20;;;;;;;;;;4974485;28;20479;-81
2021/10/23 05:33:42;;;;;;;0.00;0.00;;;;;;;;;;4974631;28;20025;-81
2021/10/23 05:36:07;;;;;;;0.00;0.00;;;;;;;;;;4974715;28;20054;-81
2021/10/23 05:38:32;;;;;;;0.00;0.00;;;;;;;;;;4974549;28;20530;-81
2021/10/23 05:40:58;;;;;;;0.10;0.10;;;;;;;;;;4974537;28;20048;-81
2021/10/23 05:43:23;;;;;;;0.08;0.08;;;;;;;;;;4974497;28;20039;-80
2021/10/23 05:45:48;;;;;;;0.20;0.20;;;;;;;;;;4974490;28;20093;-81
2021/10/23 05:48:14;;;;;;;0.20;0.20;;;;;;;;;;4974566;28;20356;-80
2021/10/23 05:50:39;;;;;;;0.00;0.00;;;;;;;;;;4974419;28;20037;-81
2021/10/23 05:53:04;;;;;;;0.30;0.30;;;;;;;;;;4974137;28;20058;-81
2021/10/23 05:55:29;;;;;;;0.00;0.00;;;;;;;;;;4974219;28;20023;-81
2021/10/23 05:57:55;;;;;;;0.00;0.00;;;;;;;;;;4974374;28;20375;-81
2021/10/23 06:00:20;;;;;;;3.30;0.63;;;;;;;;;;4974428;28;20034;-81
2021/10/23 06:02:46;;;;;;;0.73;0.73;;;;;;;;;;4975599;28;20387;-81
2021/10/23 06:05:12;;;;;;;0.20;0.15;;;;;;;;;;4978298;28;20082;-80
2021/10/23 06:07:38;;;;;;;0.10;0.10;;;;;;;;;;4978082;28;20390;-81
2021/10/23 06:10:05;;;;;;;0.00;0.00;;;;;;;;;;4977953;28;20055;-81
2021/10/23 06:12:31;;;;;;;0.00;0.00;;;;;;;;;;4978007;28;20062;-81
2021/10/23 06:14:57;;;;;;;0.00;0.00;;;;;;;;;;4978097;28;20112;-81
2021/10/23 06:17:22;;;;;;;0.00;0.00;;;;;;;;;;4977996;28;20382;-81
2021/10/23 06:19:47;;;;;;;0.17;0.17;;;;;;;;;;4977923;28;20041;-81
2021/10/23 06:22:12;;;;;;;0.00;0.00;;;;;;;;;;4978089;28;20030;-81
2021/10/23 06:24:38;;;;;;;0.10;0.10;;;;;;;;;;4977531;28;20026;-81
2021/10/23 06:27:03;;;;;;;11.18;2.55;;;;;;;;;;4977822;28;20026;-80
2021/10/23 06:29:29;;;;;;;0.10;0.10;;;;;;;;;;4977404;28;20031;-81
2021/10/23 06:31:55;;;;;;;0.98;0.63;;;;;;;;;;4977707;28;20110;-81
2021/10/23 06:34:20;;;;;;;0.15;0.15;;;;;;;;;;4977699;28;20109;-81
2021/10/23 06:36:45;;;;;;;0.10;0.10;;;;;;;;;;4977493;28;20125;-80
2021/10/23 06:39:10;;;;;;;0.20;0.20;;;;;;;;;;4977669;28;20023;-80
2021/10/23 06:41:36;;;;;;;0.15;0.15;;;;;;;;;;4977513;28;20023;-81
2021/10/23 06:44:02;;;;;;;0.00;0.00;;;;;;;;;;4977816;28;20041;-80
2021/10/23 06:46:27;;;;;;;0.00;0.00;;;;;;;;;;4977494;28;20067;-81
2021/10/23 06:48:52;;;;;;;0.00;0.00;;;;;;;;;;4977823;28;20372;-80
2021/10/23 06:51:18;;;;;;;0.08;0.08;;;;;;;;;;4977455;28;20035;-80
2021/10/23 06:53:43;;;;;;;0.57;0.30;;;;;;;;;;4977567;28;20034;-81
2021/10/23 06:56:09;;;;;;;0.10;0.10;;;;;;;;;;4977226;28;20038;-81
2021/10/23 06:58:34;;;;;;;0.03;0.03;;;;;;;;;;4976034;28;20042;-81
2021/10/23 07:00:59;;;;;;;0.00;0.00;;;;;;;;;;4977437;28;20517;-81
2021/10/23 07:03:24;;;;;;;0.10;0.10;;;;;;;;;;4975882;28;20031;-81
2021/10/23 07:05:52;;;;;;;0.00;0.00;;;;;;;;;;4977081;28;20537;-81
2021/10/23 07:08:17;;;;;;;0.10;0.10;;;;;;;;;;4977127;28;20019;-81
2021/10/23 07:10:43;;;;;;;0.00;0.00;;;;;;;;;;4976546;28;20069;-80
2021/10/23 07:13:08;;;;;;;0.45;0.45;;;;;;;;;;4976416;28;20038;-81
2021/10/23 07:15:33;;;;;;;0.00;0.00;;;;;;;;;;4976748;28;20360;-81
2021/10/23 07:17:58;;;;;;;0.15;0.15;;;;;;;;;;4976703;28;20027;-81
2021/10/23 07:20:27;;;;;;;0.68;0.68;;;;;;;;;;4976947;28;20031;-81
2021/10/23 07:22:53;;;;;;;0.00;0.00;;;;;;;;;;4976741;28;20149;-81
2021/10/23 07:25:18;;;;;;;0.70;0.70;;;;;;;;;;4976850;28;20051;-81
2021/10/23 07:27:44;;;;;;;0.40;0.40;;;;;;;;;;4976353;28;20081;-81
2021/10/23 07:30:09;;;;;;;0.10;0.10;;;;;;;;;;4976554;28;20047;-80
2021/10/23 07:32:39;;;;;;;0.15;0.15;;;;;;;;;;4976597;28;20026;-80
2021/10/23 07:35:04;;;;;;;0.10;0.10;;;;;;;;;;4976186;28;20061;-80
2021/10/23 07:37:30;;;;;;;0.68;0.57;;;;;;;;;;4976399;28;20467;-80
2021/10/23 07:39:56;;;;;;;0.63;0.63;;;;;;;;;;4976479;28;20030;-81
2021/10/23 07:42:21;;;;;;;0.13;0.05;;;;;;;;;;4976517;28;20117;-80
2021/10/23 07:44:46;;;;;;;0.10;0.10;;;;;;;;;;4976427;28;20060;-80
2021/10/23 07:47:12;;;;;;;0.10;0.10;;;;;;;;;;4976369;28;20027;-80
2021/10/23 07:49:37;;;;;;;0.00;0.00;;;;;;;;;;4976602;28;20031;-80
2021/10/23 07:52:03;;;;;;;0.28;0.28;;;;;;;;;;4976441;28;20058;-80
2021/10/23 07:54:28;;;;;;;0.00;0.00;;;;;;;;;;4976101;28;20089;-81
2021/10/23 07:56:53;;;;;;;0.35;0.35;;;;;;;;;;4976126;28;20034;-81
2021/10/23 07:59:20;;;;;;;0.10;0.10;;;;;;;;;;4976216;28;20357;-80
2021/10/23 08:01:45;;;;;;;0.00;0.00;;;;;;;;;;4975850;28;20130;-80
2021/10/23 08:04:10;;;;;;;0.00;0.00;;;;;;;;;;4976063;28;20479;-80
2021/10/23 08:06:35;;;;;;;2.92;1.52;;;;;;;;;;4975670;28;20019;-81
2021/10/23 08:09:02;;;;;;;0.28;0.28;;;;;;;;;;4971364;28;20064;-81
2021/10/23 08:11:27;;;;;;;0.10;0.10;;;;;;;;;;4956102;29;20114;-81
2021/10/23 08:13:53;;;;;;;0.10;0.10;;;;;;;;;;4956362;29;20102;-81
2021/10/23 08:16:18;;;;;;;0.30;0.30;;;;;;;;;;4956906;29;20055;-80
2021/10/23 08:18:43;;;;;;;1.00;0.85;;;;;;;;;;4956433;29;20093;-81
2021/10/23 08:21:08;;;;;;;1.83;0.82;;;;;;;;;;4949448;28;20026;-81
2021/10/23 08:23:34;;;;;;;0.75;0.75;;;;;;;;;;4972827;28;20038;-82
2021/10/23 08:25:59;;;;;;;0.13;0.13;;;;;;;;;;4974607;28;20520;-81
2021/10/23 08:28:24;;;;;;;0.20;0.20;;;;;;;;;;4975581;28;20034;-81
2021/10/23 08:30:50;;;;;;;0.00;0.00;;;;;;;;;;4975419;28;20477;-81
2021/10/23 08:33:16;;;;;;;1.30;1.20;;;;;;;;;;4975423;28;20031;-81
2021/10/23 08:35:41;;;;;;;0.00;0.00;;;;;;;;;;4975277;28;20456;-81
2021/10/23 08:38:07;;;;;;;1.38;0.75;;;;;;;;;;4973745;28;20121;-81
2021/10/23 08:40:32;;;;;;;0.25;0.22;;;;;;;;;;4975099;28;20043;-81
2021/10/23 08:42:57;;;;;;;0.00;0.00;;;;;;;;;;4975345;28;20033;-81
2021/10/23 08:45:23;;;;;;;1.88;0.70;;;;;;;;;;4975317;28;20527;-81
2021/10/23 08:47:48;;;;;;;0.10;0.10;;;;;;;;;;4974943;28;20045;-81
2021/10/23 08:50:19;;;;;;;0.00;0.00;;;;;;;;;;4975412;28;20019;-81
2021/10/23 08:52:45;;;;;;;1.13;0.43;;;;;;;;;;4974585;28;20101;-81
2021/10/23 08:55:11;;;;;;;0.30;0.30;;;;;;;;;;4974824;28;20463;-81
2021/10/23 08:57:36;;;;;;;0.00;0.00;;;;;;;;;;4974197;28;20037;-81
2021/10/23 09:00:03;;;;;;;0.00;0.00;;;;;;;;;;4975066;28;20034;-81
2021/10/23 09:02:28;;;;;;;0.10;0.10;;;;;;;;;;4975004;28;20045;-81
2021/10/23 09:04:54;;;;;;;0.00;0.00;;;;;;;;;;4974717;28;20027;-81
2021/10/23 09:07:22;;;;;;;0.00;0.00;;;;;;;;;;4975029;28;20035;-81
2021/10/23 09:09:50;;;;;;;0.03;0.03;;;;;;;;;;4984825;28;20054;-81
2021/10/23 09:12:23;;;;;;;0.10;0.10;;;;;;;;;;4984124;28;20014;-81
2021/10/23 09:15:03;;;;;;;0.00;0.00;;;;;;;;;;4994278;28;20030;-81
2021/10/23 09:17:28;;;;;;;0.05;0.05;;;;;;;;;;4994092;28;20049;-82
2021/10/23 09:19:55;;;;;;;0.10;0.10;;;;;;;;;;4994155;28;20038;-81
2021/10/23 09:22:22;;;;;;;0.00;0.00;;;;;;;;;;4994289;28;20363;-82
2021/10/23 09:24:48;;;;;;;0.00;0.00;;;;;;;;;;4994144;28;20086;-81
2021/10/23 09:27:14;;;;;;;0.10;0.10;;;;;;;;;;4994341;28;20034;-80
2021/10/23 09:29:39;;;;;;;0.43;0.43;;;;;;;;;;4993818;28;20035;-81
2021/10/23 09:32:08;;;;;;;0.00;0.00;;;;;;;;;;4994209;28;20031;-82
2021/10/23 09:34:34;;;;;;;0.05;0.05;;;;;;;;;;4993656;28;20387;-81
2021/10/23 09:37:02;;;;;;;0.08;0.08;;;;;;;;;;4993702;28;20049;-80
2021/10/23 09:39:29;;;;;;;0.00;0.00;;;;;;;;;;4993828;28;20105;-81
2021/10/23 09:42:24;;;;;;;0.08;0.08;;;;;;;;;;4993738;28;20039;-82
2021/10/23 09:45:07;;;;;;;0.00;0.00;;;;;;;;;;4976706;28;20483;-82
2021/10/23 09:47:36;;;;;;;1.25;0.38;;;;;;;;;;4993834;28;20026;-82
2021/10/23 09:50:22;;;;;;;0.00;0.00;;;;;;;;;;4993975;28;20034;-81
2021/10/23 09:53:07;;;;;;;0.00;0.00;;;;;;;;;;4993205;28;20109;-82
2021/10/23 09:55:53;;;;;;;0.00;0.00;;;;;;;;;;4993895;28;20101;-82
2021/10/23 09:58:22;;;;;;;0.00;0.00;;;;;;;;;;4994108;28;20041;-81
2021/10/23 10:00:49;;;;;;;0.10;0.10;;;;;;;;;;4993550;28;20037;-81
2021/10/23 10:03:15;;;;;;;0.73;0.15;;;;;;;;;;4994101;28;20361;-81
2021/10/23 10:05:41;;;;;;;0.70;0.52;;;;;;;;;;4993973;28;20031;-82
2021/10/23 10:08:06;;;;;;;0.00;0.00;;;;;;;;;;4993870;28;20042;-81
2021/10/23 10:10:34;;;;;;;3.83;1.67;;;;;;;;;;4993773;28;20097;-82
2021/10/23 10:13:00;;;;;;;0.15;0.15;;;;;;;;;;4993468;28;20483;-82
2021/10/23 10:15:26;;;;;;;0.00;0.00;;;;;;;;;;4993746;28;20065;-82
2021/10/23 10:17:51;;;;;;;0.20;0.20;;;;;;;;;;4993683;28;20026;-82
2021/10/23 10:20:17;;;;;;;0.00;0.00;;;;;;;;;;4993588;28;20030;-82
2021/10/23 10:22:52;;;;;;;0.00;0.00;;;;;;;;;;4993551;28;20093;-82
2021/10/23 10:25:24;;;;;;;0.00;0.00;;;;;;;;;;4993655;28;20084;-82
2021/10/23 10:27:52;;;;;;;0.03;0.03;;;;;;;;;;4993613;28;20110;-82
2021/10/23 10:30:29;;;;;;;2.50;1.35;;;;;;;;;;4993720;28;20425;-82
2021/10/23 10:33:14;;;;;;;0.00;0.00;;;;;;;;;;4993855;28;20035;-82
2021/10/23 10:36:07;;;;;;;0.93;0.65;;;;;;;;;;4992878;28;20031;-82
2021/10/23 10:38:41;;;;;;;0.73;0.73;;;;;;;;;;4992211;28;20074;-82
2021/10/23 10:44:23;;;;;;;0.40;0.40;;;;;;;;;;4993502;28;20089;-82
2021/10/23 10:46:54;;;;;;;0.05;0.05;;;;;;;;;;4959037;28;20462;-82
2021/10/23 10:49:38;;;;;;;0.00;0.00;;;;;;;;;;4995777;28;20065;-82
2021/10/23 10:52:23;;;;;;;0.00;0.00;;;;;;;;;;4996837;28;20026;-82
2021/10/23 10:55:12;;;;;;;0.00;0.00;;;;;;;;;;4996221;28;20031;-82
2021/10/23 10:57:56;;;;;;;1.20;0.68;;;;;;;;;;4985804;28;20556;-82
2021/10/23 11:00:21;;;;;;;0.30;0.30;;;;;;;;;;4996665;28;20081;-82
2021/10/23 11:02:46;;;;;;;0.00;0.00;;;;;;;;;;4996694;28;20057;-82
2021/10/23 11:05:16;;;;;;;0.20;0.20;;;;;;;;;;4996750;28;20437;-82
2021/10/23 11:08:17;;;;;;;0.25;0.22;;;;;;;;;;4979061;28;20084;-82
2021/10/23 11:10:48;;;;;;;0.10;0.10;;;;;;;;;;4917067;29;20052;-82
2021/10/23 11:13:29;;;;;;;0.00;0.00;;;;;;;;;;4982525;28;20123;-82
2021/10/23 11:15:55;;;;;;;0.00;0.00;;;;;;;;;;4996364;28;20062;-82
2021/10/23 11:18:20;;;;;;;0.00;0.00;;;;;;;;;;4996516;28;20089;-82
2021/10/23 11:20:46;;;;;;;0.20;0.20;;;;;;;;;;4996170;28;20444;-82
2021/10/23 11:23:18;;;;;;;0.03;0.03;;;;;;;;;;4996518;28;20033;-82
2021/10/23 11:25:43;;;;;;;0.00;0.00;;;;;;;;;;4995806;28;20434;-82
2021/10/23 11:28:11;;;;;;;0.10;0.10;;;;;;;;;;4996392;28;20027;-82
2021/10/23 11:30:41;;;;;;;0.00;0.00;;;;;;;;;;4996330;28;20030;-83
2021/10/23 11:33:08;;;;;;;0.20;0.20;;;;;;;;;;4996099;28;20125;-82
2021/10/23 11:35:35;;;;;;;0.10;0.10;;;;;;;;;;4995988;28;20018;-81
2021/10/23 11:38:08;;;;;;;0.00;0.00;;;;;;;;;;4996000;28;20113;-82
2021/10/23 11:40:35;;;;;;;0.10;0.10;;;;;;;;;;4978604;28;20096;-82
2021/10/23 11:43:01;;;;;;;1.17;0.45;;;;;;;;;;4995926;28;20077;-82
2021/10/23 11:45:28;;;;;;;22.80;2.20;;;;;;;;;;4996062;28;20031;-82
2021/10/23 11:47:53;;;;;;;0.00;0.00;;;;;;;;;;4995799;28;20109;-82
2021/10/23 11:50:23;;;;;;;0.00;0.00;;;;;;;;;;4995988;28;20490;-82
2021/10/23 11:53:07;;;;;;;0.45;0.32;;;;;;;;;;4978009;28;20097;-82
2021/10/23 11:55:35;;;;;;;0.00;0.00;;;;;;;;;;4995689;28;20030;-82
2021/10/23 11:58:05;;;;;;;0.38;0.38;;;;;;;;;;4995684;28;20073;-82
2021/10/23 12:00:31;;;;;;;2.50;0.80;;;;;;;;;;4995510;28;20018;-82
2021/10/23 12:02:59;;;;;;;0.10;0.10;;;;;;;;;;4995435;28;20080;-83
2021/10/23 12:05:26;;;;;;;1.85;0.35;;;;;;;;;;4995637;28;20042;-83
2021/10/23 12:08:10;;;;;;;0.00;0.00;;;;;;;;;;4995128;28;20458;-83
2021/10/23 12:10:55;;;;;;;0.00;0.00;;;;;;;;;;4995007;28;20050;-83
2021/10/23 12:13:20;;;;;;;0.00;0.00;;;;;;;;;;4995383;28;20035;-82
2021/10/23 12:15:58;;;;;;;0.10;0.10;;;;;;;;;;4995217;28;20617;-83
2021/10/23 12:18:31;;;;;;;0.03;0.03;;;;;;;;;;4995265;28;20385;-83
2021/10/23 12:21:08;;;;;;;1.45;1.35;;;;;;;;;;4994781;28;20045;-82
2021/10/23 12:23:44;;;;;;;1.65;0.90;;;;;;;;;;4995078;28;20034;-83
2021/10/23 12:26:09;;;;;;;0.20;0.20;;;;;;;;;;4994916;28;20510;-83
2021/10/23 12:28:53;;;;;;;0.20;0.10;;;;;;;;;;4995007;28;20062;-83
2021/10/23 12:31:19;;;;;;;0.10;0.10;;;;;;;;;;4994517;28;20385;-83
2021/10/23 12:34:02;;;;;;;0.00;0.00;;;;;;;;;;4994849;28;20038;-83
2021/10/23 12:36:28;;;;;;;0.52;0.52;;;;;;;;;;4994370;28;20038;-83
2021/10/23 12:38:53;;;;;;;0.00;0.00;;;;;;;;;;4994601;28;20230;-83
2021/10/23 12:41:18;;;;;;;0.30;0.28;;;;;;;;;;4977186;28;20030;-84
2021/10/23 12:43:44;;;;;;;0.00;0.00;;;;;;;;;;4976868;28;20034;-84
2021/10/23 12:46:11;;;;;;;0.10;0.10;;;;;;;;;;4994712;28;20092;-84
2021/10/23 12:48:36;;;;;;;0.00;0.00;;;;;;;;;;4993115;28;20069;-85
2021/10/23 12:51:01;;;;;;;0.98;0.70;;;;;;;;;;4987474;28;20110;-83
2021/10/23 12:53:27;;;;;;;0.50;0.50;;;;;;;;;;4994498;28;20061;-85
2021/10/23 12:55:52;;;;;;;0.20;0.20;;;;;;;;;;4994501;28;20026;-83
2021/10/23 12:58:18;;;;;;;0.10;0.10;;;;;;;;;;4990165;28;20031;-83
2021/10/23 13:00:46;;;;;;;0.00;0.00;;;;;;;;;;4979999;28;20065;-84
2021/10/23 13:03:11;;;;;;;0.30;0.30;;;;;;;;;;4994772;28;20182;-83
2021/10/23 13:05:37;;;;;;;0.00;0.00;;;;;;;;;;4994548;28;20113;-83
2021/10/23 13:08:02;;;;;;;0.00;0.00;;;;;;;;;;4993268;28;20030;-84
2021/10/23 13:10:28;;;;;;;0.20;0.20;;;;;;;;;;4973921;28;20050;-83
2021/10/23 13:12:53;;;;;;;0.00;0.00;;;;;;;;;;4974101;28;20022;-83
2021/10/23 13:15:19;;;;;;;0.15;0.15;;;;;;;;;;4974570;28;20041;-83
2021/10/23 13:17:44;;;;;;;1.23;0.95;;;;;;;;;;4974732;28;20135;-83
2021/10/23 13:20:10;;;;;;;0.30;0.20;;;;;;;;;;4974712;28;20054;-83
2021/10/23 13:22:36;;;;;;;0.10;0.10;;;;;;;;;;4974914;28;20027;-83
2021/10/23 13:25:01;;;;;;;0.00;0.00;;;;;;;;;;4974501;28;20062;-83
2021/10/23 13:27:26;;;;;;;0.10;0.10;;;;;;;;;;4974823;28;20038;-83
2021/10/23 13:29:55;;;;;;;0.05;0.05;;;;;;;;;;4974610;28;20031;-83
2021/10/23 13:32:21;;;;;;;0.10;0.10;;;;;;;;;;4974631;28;20030;-83
2021/10/23 13:34:46;;;;;;;0.75;0.52;;;;;;;;;;4974692;28;20423;-83
2021/10/23 13:37:12;;;;;;;0.35;0.35;;;;;;;;;;4974767;28;20089;-83
2021/10/23 13:39:37;;;;;;;2.10;0.65;;;;;;;;;;4974624;28;20102;-83
2021/10/23 13:42:03;;;;;;;0.10;0.10;;;;;;;;;;4974646;28;20027;-83
2021/10/23 13:44:30;;;;;;;0.03;0.03;;;;;;;;;;4974792;28;20034;-83
2021/10/23 13:46:55;;;;;;;0.10;0.10;;;;;;;;;;4974854;28;20070;-83
2021/10/23 13:49:20;;;;;;;3.83;1.10;;;;;;;;;;4974692;28;20027;-83
2021/10/23 13:51:46;;;;;;;1.00;0.55;;;;;;;;;;4974449;28;20510;-83
2021/10/23 13:54:11;;;;;;;0.35;0.35;;;;;;;;;;4974667;28;20030;-83
2021/10/23 13:56:37;;;;;;;5.38;0.65;;;;;;;;;;4974425;28;20039;-83
2021/10/23 13:59:02;;;;;;;0.00;0.00;;;;;;;;;;4974342;28;20057;-83
2021/10/23 14:01:27;;;;;;;0.20;0.20;;;;;;;;;;4974457;28;20023;-83
2021/10/23 14:03:53;;;;;;;0.00;0.00;;;;;;;;;;4974306;28;20114;-83
2021/10/23 14:06:18;;;;;;;0.17;0.17;;;;;;;;;;4974449;28;20031;-83
2021/10/23 14:08:44;;;;;;;0.45;0.45;;;;;;;;;;4973782;28;20031;-83
2021/10/23 14:11:09;;;;;;;0.00;0.00;;;;;;;;;;4973891;28;20031;-83
2021/10/23 14:13:35;;;;;;;0.20;0.20;;;;;;;;;;4974333;28;20105;-83
2021/10/23 14:16:00;;;;;;;0.10;0.10;;;;;;;;;;4973882;28;20138;-83
2021/10/23 14:18:28;;;;;;;0.10;0.10;;;;;;;;;;4974371;28;20031;-83
2021/10/23 14:20:54;;;;;;;0.25;0.25;;;;;;;;;;4974296;28;20039;-83
2021/10/23 14:23:20;;;;;;;0.45;0.45;;;;;;;;;;4975203;28;20019;-83
2021/10/23 14:25:50;;;;;;;0.05;0.05;;;;;;;;;;4977816;28;20031;-84
2021/10/23 14:28:39;;;;;;;0.60;0.43;;;;;;;;;;4977925;28;20471;-83
2021/10/23 14:31:03;;;;;;;1.20;1.10;;;;;;;;;;4977270;28;20083;-84
2021/10/23 14:33:28;;;;;;;0.57;0.52;;;;;;;;;;4977688;28;20039;-84
2021/10/23 14:35:54;;;;;;;0.10;0.10;;;;;;;;;;4977709;28;20114;-83
2021/10/23 14:38:19;;;;;;;0.30;0.30;;;;;;;;;;4977743;28;20077;-83
2021/10/23 14:40:44;;;;;;;0.05;0.05;;;;;;;;;;4977599;28;20481;-84
2021/10/23 14:43:10;;;;;;;0.63;0.32;;;;;;;;;;4977589;28;20030;-84
2021/10/23 14:45:35;;;;;;;0.00;0.00;;;;;;;;;;4977769;28;20378;-84